Time;durP1;ratioP1;P1;durP2;ratioP2;P2;SDS_P1;SDS_P2;PMS_P1;PMS_P2;Temp;Humidity;BMP_temperature;BMP_pressure;BME280_temperature;BME280_humidity;BME280_pressure;Samples;Min_cycle;Max_cycle;Signal;HPM_P1;HPM_P2
2022/02/12 00:02:11;;;;;;;6.07;2.30;;;;;;;-1.12;100.00;96246.75;4916213;29;20491;-67
2022/02/12 00:04:36;;;;;;;5.70;2.03;;;;;;;-1.16;100.00;96240.19;4917670;29;20020;-65
2022/02/12 00:07:02;;;;;;;3.75;2.00;;;;;;;-1.21;100.00;96247.72;4918841;29;20453;-66
2022/02/12 00:09:29;;;;;;;3.17;2.40;;;;;;;-1.22;100.00;96253.97;4919153;29;20039;-66
2022/02/12 00:11:57;;;;;;;3.45;2.60;;;;;;;-1.25;100.00;96241.97;4918673;29;20036;-65
2022/02/12 00:14:25;;;;;;;5.18;2.63;;;;;;;-1.28;100.00;96244.94;4918975;29;20028;-65
2022/02/12 00:16:56;;;;;;;3.65;2.58;;;;;;;-1.30;100.00;96248.72;4918834;29;20360;-65
2022/02/12 00:19:25;;;;;;;5.13;2.45;;;;;;;-1.31;100.00;96247.06;4917382;29;20547;-65
2022/02/12 00:21:50;;;;;;;3.97;2.47;;;;;;;-1.33;100.00;96246.41;4917249;29;20063;-65
2022/02/12 00:24:17;;;;;;;4.63;2.63;;;;;;;-1.33;100.00;96241.13;4918532;29;20056;-65
2022/02/12 00:26:46;;;;;;;3.75;2.50;;;;;;;-1.30;100.00;96240.84;4918530;29;20040;-65
2022/02/12 00:29:18;;;;;;;5.75;3.25;;;;;;;-1.32;100.00;96240.16;4918592;29;20031;-65
2022/02/12 00:31:44;;;;;;;5.80;3.25;;;;;;;-1.34;100.00;96236.88;4917169;29;20079;-66
2022/02/12 00:34:11;;;;;;;6.88;2.78;;;;;;;-1.35;100.00;96241.31;4918412;29;20040;-65
2022/02/12 00:36:42;;;;;;;6.97;2.88;;;;;;;-1.35;100.00;96236.06;4918298;29;20067;-64
2022/02/12 00:39:08;;;;;;;4.93;2.85;;;;;;;-1.36;100.00;96231.78;4916993;29;20060;-65
2022/02/12 00:41:36;;;;;;;6.25;3.10;;;;;;;-1.37;100.00;96235.41;4930821;29;20044;-64
2022/02/12 00:44:04;;;;;;;7.85;2.90;;;;;;;-1.37;100.00;96231.94;4917013;29;20021;-64
2022/02/12 00:46:39;;;;;;;4.05;2.80;;;;;;;-1.41;100.00;96234.09;4917077;29;20067;-64
2022/02/12 00:49:06;;;;;;;3.67;2.10;;;;;;;-1.42;100.00;96235.03;4922243;29;20036;-64
2022/02/12 00:51:52;;;;;;;7.32;2.90;;;;;;;-1.36;100.00;96228.34;4916705;29;20025;-64
2022/02/12 00:54:18;;;;;;;3.30;2.38;;;;;;;-1.30;100.00;96243.47;4918059;29;20043;-64
2022/02/12 00:56:53;;;;;;;4.32;2.60;;;;;;;-1.32;100.00;96240.97;4918028;29;20479;-65
2022/02/12 00:59:25;;;;;;;4.75;2.72;;;;;;;-1.33;100.00;96243.78;4917961;29;20032;-64
2022/02/12 01:01:51;;;;;;;5.10;2.63;;;;;;;-1.36;100.00;96234.41;4900775;29;20027;-64
2022/02/12 01:04:20;;;;;;;4.35;2.60;;;;;;;-1.38;100.00;96231.13;4916689;29;20103;-64
2022/02/12 01:06:47;;;;;;;7.75;3.13;;;;;;;-1.38;100.00;96235.56;4916614;29;20032;-64
2022/02/12 01:09:13;;;;;;;4.68;2.70;;;;;;;-1.38;100.00;96232.94;4917953;29;20048;-64
2022/02/12 01:11:46;;;;;;;5.57;3.08;;;;;;;-1.39;100.00;96228.66;4917692;29;20210;-64
2022/02/12 01:14:12;;;;;;;4.97;2.78;;;;;;;-1.41;100.00;96226.22;4917824;29;20032;-64
2022/02/12 01:16:37;;;;;;;6.07;2.78;;;;;;;-1.43;100.00;96219.44;4916819;29;20157;-63
2022/02/12 01:19:06;;;;;;;4.20;2.75;;;;;;;-1.43;100.00;96220.28;4916817;29;20115;-64
2022/02/12 01:21:34;;;;;;;4.50;2.50;;;;;;;-1.38;100.00;96231.13;4900740;29;20036;-64
2022/02/12 01:24:00;;;;;;;6.35;2.92;;;;;;;-1.35;100.00;96227.34;4917735;29;20036;-64
2022/02/12 01:26:25;;;;;;;7.30;3.08;;;;;;;-1.32;100.00;96219.13;4917434;29;20032;-65
2022/02/12 01:28:50;;;;;;;7.35;3.08;;;;;;;-1.30;100.00;96227.69;4917404;29;20072;-65
2022/02/12 01:31:34;;;;;;;7.22;3.92;;;;;;;-1.29;100.00;96213.56;4917498;29;20028;-64
2022/02/12 01:34:07;;;;;;;7.22;4.20;;;;;;;-1.27;100.00;96220.28;4916034;29;20083;-64
2022/02/12 01:36:35;;;;;;;8.30;4.30;;;;;;;-1.27;100.00;96216.84;4917204;29;20040;-63
2022/02/12 01:39:00;;;;;;;6.15;4.22;;;;;;;-1.31;100.00;96218.97;4917487;29;20067;-64
2022/02/12 01:41:29;;;;;;;9.32;4.38;;;;;;;-1.36;100.00;96216.00;4940677;23;20079;-63
2022/02/12 01:43:54;;;;;;;6.40;4.38;;;;;;;-1.39;100.00;96213.72;4916422;29;20031;-64
2022/02/12 01:46:19;;;;;;;6.68;4.50;;;;;;;-1.35;100.00;96211.59;4933757;29;20391;-63
2022/02/12 01:48:50;;;;;;;6.60;4.80;;;;;;;-1.40;100.00;96209.44;4936365;29;20027;-63
2022/02/12 01:51:16;;;;;;;8.20;4.82;;;;;;;-1.41;100.00;96209.59;4943703;29;20110;-64
2022/02/12 01:53:41;;;;;;;6.20;4.40;;;;;;;-1.44;100.00;96210.75;4954050;28;20122;-63
2022/02/12 01:56:10;;;;;;;10.18;4.55;;;;;;;-1.47;100.00;96216.34;4954130;28;20050;-64
2022/02/12 01:58:38;;;;;;;6.72;4.00;;;;;;;-1.52;100.00;96208.09;4955278;28;20074;-63
2022/02/12 02:01:10;;;;;;;8.68;4.30;;;;;;;-1.53;100.00;96203.84;4953762;29;20038;-61
2022/02/12 02:03:38;;;;;;;6.15;3.90;;;;;;;-1.53;100.00;96202.03;4953938;28;20035;-63
2022/02/12 02:06:04;;;;;;;6.95;4.40;;;;;;;-1.53;100.00;96206.47;4955065;28;20389;-61
2022/02/12 02:08:29;;;;;;;9.02;4.57;;;;;;;-1.57;100.00;96200.72;4953772;28;20106;-60
2022/02/12 02:10:55;;;;;;;8.57;4.03;;;;;;;-1.59;100.00;96200.06;4953811;29;20023;-60
2022/02/12 02:13:25;;;;;;;6.50;4.05;;;;;;;-1.60;100.00;96187.91;4937831;29;20019;-60
2022/02/12 02:15:50;;;;;;;8.77;4.20;;;;;;;-1.62;100.00;96196.94;4954061;28;20430;-61
2022/02/12 02:18:16;;;;;;;9.05;4.47;;;;;;;-1.62;100.00;96195.13;4954911;28;20027;-60
2022/02/12 02:20:44;;;;;;;8.65;4.20;;;;;;;-1.57;100.00;96192.84;4954668;28;20421;-57
2022/02/12 02:23:10;;;;;;;6.68;4.22;;;;;;;-1.57;100.00;96192.84;4954749;28;20034;-64
2022/02/12 02:25:39;;;;;;;6.63;3.97;;;;;;;-1.55;100.00;96190.03;4969219;28;20023;-63
2022/02/12 02:28:05;;;;;;;6.13;4.05;;;;;;;-1.57;100.00;96182.31;4954671;28;20042;-62
2022/02/12 02:30:30;;;;;;;6.32;4.47;;;;;;;-1.60;100.00;96181.84;4953289;28;20023;-63
2022/02/12 02:32:55;;;;;;;8.38;4.65;;;;;;;-1.63;100.00;96174.25;4953646;29;20042;-65
2022/02/12 02:35:25;;;;;;;9.30;4.38;;;;;;;-1.64;100.00;96170.00;4954631;28;20019;-63
2022/02/12 02:37:51;;;;;;;6.88;4.47;;;;;;;-1.69;100.00;96167.03;4953271;28;20458;-63
2022/02/12 02:40:21;;;;;;;9.18;4.63;;;;;;;-1.73;100.00;96163.13;4954625;28;20022;-61
2022/02/12 02:42:49;;;;;;;11.88;4.75;;;;;;;-1.76;100.00;96161.59;4954742;28;20048;-63
2022/02/12 02:45:15;;;;;;;8.38;4.65;;;;;;;-1.76;100.00;96161.59;4935390;29;20052;-63
2022/02/12 02:47:43;;;;;;;7.00;4.38;;;;;;;-1.78;100.00;96156.53;4935220;29;20468;-62
2022/02/12 02:56:07;;;;;;;7.60;4.28;;;;;;;-1.88;100.00;96145.34;4935584;29;20035;-63
2022/02/12 02:58:37;;;;;;;8.70;4.75;;;;;;;-1.92;100.00;96140.59;4934009;29;20039;-61
2022/02/12 03:01:05;;;;;;;8.85;4.88;;;;;;;-1.97;100.00;96138.44;4935160;29;20124;-61
2022/02/12 03:03:31;;;;;;;8.20;4.72;;;;;;;-2.01;100.00;96139.75;4935233;29;20027;-60
2022/02/12 03:06:01;;;;;;;12.25;5.07;;;;;;;-2.02;100.00;96140.72;4935078;29;20030;-61
2022/02/12 03:08:28;;;;;;;10.30;4.18;;;;;;;-2.06;100.00;96148.13;4933985;29;20031;-61
2022/02/12 03:10:57;;;;;;;8.23;4.30;;;;;;;-2.07;100.00;96141.19;4935045;29;20031;-62
2022/02/12 03:13:23;;;;;;;7.07;4.70;;;;;;;-2.09;100.00;96148.41;4935106;29;20023;-62
2022/02/12 03:15:52;;;;;;;13.63;4.35;;;;;;;-2.12;100.00;96150.56;4935207;29;20439;-61
2022/02/12 03:18:17;;;;;;;8.30;4.43;;;;;;;-2.17;100.00;96152.81;4949864;28;20028;-60
2022/02/12 03:20:46;;;;;;;7.15;4.50;;;;;;;-2.23;100.00;96148.22;4934991;29;20372;-59
2022/02/12 03:23:14;;;;;;;5.88;4.00;;;;;;;-2.30;100.00;96140.16;4935018;29;20079;-60
2022/02/12 03:25:40;;;;;;;7.88;4.57;;;;;;;-2.38;100.00;96142.78;4934984;29;20531;-58
2022/02/12 03:28:06;;;;;;;10.35;4.50;;;;;;;-2.45;100.00;96141.75;4934970;29;20123;-59
2022/02/12 03:30:40;;;;;;;8.10;4.60;;;;;;;-2.50;100.00;96149.25;4949682;28;20031;-56
2022/02/12 03:33:09;;;;;;;7.03;4.65;;;;;;;-2.56;100.00;96142.03;4933551;29;20494;-60
2022/02/12 03:35:35;;;;;;;8.05;5.00;;;;;;;-2.58;100.00;96141.38;4934935;29;20111;-58
2022/02/12 03:38:06;;;;;;;8.05;4.28;;;;;;;-2.61;100.00;96145.13;4938605;29;20562;-61
2022/02/12 03:40:33;;;;;;;7.88;4.68;;;;;;;-2.62;100.00;96148.72;4962576;28;20035;-57
2022/02/12 03:43:12;;;;;;;9.73;4.63;;;;;;;-2.58;100.00;96146.63;4941846;28;20031;-60
2022/02/12 03:45:38;;;;;;;8.73;4.93;;;;;;;-2.59;100.00;96143.19;4953734;28;20130;-60
2022/02/12 03:48:03;;;;;;;7.93;5.25;;;;;;;-2.57;100.00;96146.47;4953208;28;20051;-57
2022/02/12 03:50:31;;;;;;;9.35;5.53;;;;;;;-2.54;100.00;96145.31;4938077;29;20061;-55
2022/02/12 03:53:01;;;;;;;7.18;5.00;;;;;;;-2.53;100.00;96145.16;4938254;29;20482;-60
2022/02/12 03:55:31;;;;;;;9.68;5.78;;;;;;;-2.53;100.00;96145.16;4952994;28;20032;-59
2022/02/12 03:57:56;;;;;;;9.52;5.32;;;;;;;-2.55;100.00;96143.69;4938284;29;20024;-60
2022/02/12 04:00:25;;;;;;;11.27;5.30;;;;;;;-2.59;100.00;96142.34;4938237;29;20020;-58
2022/02/12 04:02:53;;;;;;;8.80;5.40;;;;;;;-2.63;100.00;96141.84;4952824;28;20062;-59
2022/02/12 04:05:20;;;;;;;12.95;6.32;;;;;;;-2.64;100.00;96140.19;4938078;29;20023;-56
2022/02/12 04:07:46;;;;;;;6.60;5.18;;;;;;;-2.68;100.00;96137.06;4952740;28;20110;-59
2022/02/12 04:10:15;;;;;;;10.98;6.05;;;;;;;-2.69;100.00;96134.63;4938042;29;20082;-61
2022/02/12 04:12:45;;;;;;;9.57;6.13;;;;;;;-2.70;100.00;96133.78;4936492;29;20423;-57
2022/02/12 04:15:12;;;;;;;8.88;5.82;;;;;;;-2.66;100.00;96139.53;4952610;28;20035;-61
2022/02/12 04:17:38;;;;;;;9.43;6.25;;;;;;;-2.65;100.00;96143.78;4936528;29;20027;-59
2022/02/12 04:20:10;;;;;;;10.35;6.32;;;;;;;-2.66;100.00;96135.09;4937809;29;20020;-61
2022/02/12 04:22:37;;;;;;;15.32;6.97;;;;;;;-2.67;100.00;96137.88;4936482;29;20031;-59
2022/02/12 04:25:05;;;;;;;9.48;6.68;;;;;;;-2.71;100.00;96144.44;4937807;29;20030;-59
2022/02/12 04:27:31;;;;;;;10.60;6.85;;;;;;;-2.75;100.00;96128.19;4937650;29;20029;-62
2022/02/12 04:29:57;;;;;;;10.23;6.35;;;;;;;-2.76;100.00;96136.19;4937595;29;20024;-57
2022/02/12 04:32:22;;;;;;;10.73;6.53;;;;;;;-2.78;100.00;96135.53;4937457;29;20445;-59
2022/02/12 04:34:49;;;;;;;10.57;7.25;;;;;;;-2.80;100.00;96130.47;4937412;29;20027;-56
2022/02/12 04:37:19;;;;;;;9.35;6.68;;;;;;;-2.78;100.00;96122.44;4937628;29;20032;-58
2022/02/12 04:39:50;;;;;;;9.60;6.88;;;;;;;-2.77;100.00;96119.66;4940353;29;20074;-57
2022/02/12 04:42:17;;;;;;;8.65;6.25;;;;;;;-2.77;100.00;96119.66;4944877;28;20419;-56
2022/02/12 04:44:46;;;;;;;10.23;7.18;;;;;;;-2.78;100.00;96112.78;4937266;29;20020;-57
2022/02/12 04:47:12;;;;;;;10.75;6.35;;;;;;;-2.81;100.00;96113.09;4936983;29;20144;-58
2022/02/12 04:49:41;;;;;;;11.48;6.55;;;;;;;-2.81;100.00;96112.28;4937322;29;20107;-60
2022/02/12 04:52:10;;;;;;;9.73;6.60;;;;;;;-2.81;100.00;96105.22;4937204;29;20074;-57
2022/02/12 04:54:37;;;;;;;11.77;6.57;;;;;;;-2.79;100.00;96100.63;4937049;28;20043;-55
2022/02/12 04:57:04;;;;;;;9.55;6.68;;;;;;;-2.77;100.00;96096.06;4937189;29;20094;-59
2022/02/12 04:59:33;;;;;;;8.75;6.53;;;;;;;-2.78;100.00;96102.28;4951696;28;20020;-58
2022/02/12 05:01:59;;;;;;;10.48;7.30;;;;;;;-2.81;100.00;96092.13;4937173;29;20053;-55
2022/02/12 05:04:24;;;;;;;11.13;6.63;;;;;;;-2.82;100.00;96080.00;4937022;29;20466;-56
2022/02/12 05:06:50;;;;;;;9.95;6.20;;;;;;;-2.82;100.00;96084.38;4937012;29;20111;-54
2022/02/12 05:09:17;;;;;;;13.43;6.45;;;;;;;-2.79;100.00;96078.84;4936985;29;20028;-54
2022/02/12 05:11:43;;;;;;;9.88;6.57;;;;;;;-2.82;100.00;96079.13;4936748;29;20032;-60
2022/02/12 05:14:12;;;;;;;9.38;6.55;;;;;;;-2.82;100.00;96082.63;4936664;29;20028;-58
2022/02/12 05:16:41;;;;;;;11.13;7.20;;;;;;;-2.87;100.00;96073.56;4936828;29;20123;-59
2022/02/12 05:19:10;;;;;;;12.65;7.10;;;;;;;-2.92;100.00;96071.41;4951663;28;20510;-59
2022/02/12 05:21:40;;;;;;;11.75;6.65;;;;;;;-2.94;100.00;96071.56;4936627;29;20114;-54
2022/02/12 05:24:09;;;;;;;9.40;6.60;;;;;;;-2.92;100.00;96068.81;4936979;29;20038;-58
2022/02/12 05:26:40;;;;;;;8.93;6.32;;;;;;;-2.90;100.00;96073.88;4951586;28;20030;-60
2022/02/12 05:29:06;;;;;;;15.15;6.38;;;;;;;-2.90;100.00;96072.09;4937059;29;20115;-58
2022/02/12 05:31:37;;;;;;;11.43;6.57;;;;;;;-2.90;100.00;96071.25;4936374;29;20078;-58
2022/02/12 05:34:03;;;;;;;9.98;6.50;;;;;;;-2.87;100.00;96076.19;4936441;29;20059;-58
2022/02/12 05:36:31;;;;;;;10.60;6.88;;;;;;;-2.88;100.00;96077.97;4936432;29;20024;-56
2022/02/12 05:38:57;;;;;;;11.05;6.50;;;;;;;-2.91;100.00;96075.69;4936266;29;20074;-57
2022/02/12 05:41:22;;;;;;;9.98;6.55;;;;;;;-2.93;100.00;96077.66;4948705;29;20049;-56
2022/02/12 05:43:48;;;;;;;9.77;6.32;;;;;;;-3.00;100.00;96071.38;4936380;29;20023;-57
2022/02/12 05:46:14;;;;;;;9.40;5.82;;;;;;;-3.04;100.00;96076.13;4936245;29;20035;-58
2022/02/12 05:48:48;;;;;;;10.07;6.40;;;;;;;-3.08;100.00;96066.91;4936144;29;20615;-53
2022/02/12 05:51:18;;;;;;;12.30;6.22;;;;;;;-3.10;100.00;96066.25;4950764;28;20050;-59
2022/02/12 05:53:44;;;;;;;8.68;5.80;;;;;;;-3.08;100.00;96066.91;4936026;29;20027;-58
2022/02/12 05:56:13;;;;;;;7.50;5.38;;;;;;;-3.11;100.00;96058.56;4936071;29;20024;-57
2022/02/12 05:58:38;;;;;;;11.43;6.20;;;;;;;-3.17;100.00;96069.63;4935432;29;20020;-59
2022/02/12 06:01:04;;;;;;;9.52;5.68;;;;;;;-3.23;100.00;96065.84;4950555;28;20589;-57
2022/02/12 06:03:29;;;;;;;10.48;6.40;;;;;;;-3.31;100.00;96071.03;4936056;29;20035;-57
2022/02/12 06:05:54;;;;;;;13.00;6.30;;;;;;;-3.32;100.00;96064.16;4935812;29;20031;-59
2022/02/12 06:08:20;;;;;;;8.95;5.45;;;;;;;-3.37;100.00;96063.78;4935877;29;20031;-59
2022/02/12 06:10:45;;;;;;;7.70;5.10;;;;;;;-3.39;100.00;96071.81;4950769;28;20074;-59
2022/02/12 06:13:23;;;;;;;9.55;5.38;;;;;;;-3.41;100.00;96071.16;4950735;28;20039;-57
2022/02/12 06:15:51;;;;;;;9.85;5.22;;;;;;;-3.44;100.00;96063.59;4935603;29;20482;-59
2022/02/12 06:18:17;;;;;;;9.15;5.45;;;;;;;-3.42;100.00;96068.69;4950441;28;20034;-55
2022/02/12 06:20:48;;;;;;;9.43;5.07;;;;;;;-3.37;100.00;96066.41;4935339;29;20118;-58
2022/02/12 06:23:20;;;;;;;7.38;4.85;;;;;;;-3.35;100.00;96067.94;4935688;29;20026;-58
2022/02/12 06:25:51;;;;;;;6.75;4.85;;;;;;;-3.35;100.00;96065.31;4935768;28;20401;-57
2022/02/12 06:28:17;;;;;;;7.43;4.95;;;;;;;-3.35;100.00;96060.06;4935470;29;20462;-56
2022/02/12 06:30:42;;;;;;;8.23;5.00;;;;;;;-3.35;100.00;96057.44;4935469;29;20099;-57
2022/02/12 06:33:14;;;;;;;8.73;5.60;;;;;;;-3.36;100.00;96053.19;4935383;29;20032;-58
2022/02/12 06:35:39;;;;;;;9.52;5.10;;;;;;;-3.37;100.00;96056.75;4935479;29;20036;-59
2022/02/12 06:38:14;;;;;;;6.88;5.38;;;;;;;-3.40;100.00;96056.25;4935685;29;20094;-60
2022/02/12 06:40:42;;;;;;;10.70;5.18;;;;;;;-3.42;100.00;96055.59;4944735;29;20035;-58
2022/02/12 06:43:08;;;;;;;10.60;5.05;;;;;;;-3.41;100.00;96059.84;4937449;28;20110;-59
2022/02/12 06:45:37;;;;;;;10.65;5.72;;;;;;;-3.44;100.00;96058.38;4935205;29;20106;-59
2022/02/12 06:48:03;;;;;;;8.98;5.30;;;;;;;-3.43;100.00;96060.00;4949828;28;20114;-58
2022/02/12 06:50:28;;;;;;;9.57;4.97;;;;;;;-3.42;100.00;96061.66;4935261;29;20082;-58
2022/02/12 06:52:54;;;;;;;7.28;4.95;;;;;;;-3.45;100.00;96061.16;4935253;29;20061;-60
2022/02/12 06:55:22;;;;;;;7.63;5.00;;;;;;;-3.47;100.00;96069.16;4935297;29;20030;-58
2022/02/12 06:57:49;;;;;;;8.88;4.72;;;;;;;-3.53;100.00;96077.63;4935289;29;20020;-60
2022/02/12 07:00:15;;;;;;;9.98;4.40;;;;;;;-3.58;100.00;96072.84;4935117;29;20035;-59
2022/02/12 07:02:41;;;;;;;9.43;4.65;;;;;;;-3.65;100.00;96073.59;4934994;29;20446;-60
2022/02/12 07:05:06;;;;;;;10.52;6.13;;;;;;;-3.70;100.00;96074.03;4935177;29;20098;-56
2022/02/12 07:07:32;;;;;;;9.15;5.00;;;;;;;-3.78;100.00;96071.38;4935120;29;20028;-58
2022/02/12 07:09:57;;;;;;;6.85;5.10;;;;;;;-3.81;100.00;96082.97;4860985;28;20047;-55
2022/02/12 07:12:23;;;;;;;7.72;4.72;;;;;;;-3.83;100.00;96084.09;4953000;29;20474;-57
2022/02/12 07:14:48;;;;;;;8.20;4.38;;;;;;;-3.92;100.00;96083.19;4956814;28;20034;-58
2022/02/12 07:17:14;;;;;;;6.55;4.10;;;;;;;-4.03;100.00;96087.84;4958044;28;20034;-63
2022/02/12 07:19:40;;;;;;;6.45;4.10;;;;;;;-4.13;100.00;96085.31;4958085;28;20102;-59
2022/02/12 07:22:05;;;;;;;4.60;3.78;;;;;;;-4.22;100.00;96086.22;4945002;28;20505;-58
2022/02/12 07:24:30;;;;;;;9.10;4.57;;;;;;;-4.23;100.00;96089.81;4937591;29;20550;-55
2022/02/12 07:26:56;;;;;;;9.13;4.35;;;;;;;-4.18;100.00;96088.38;4942543;29;20035;-56
2022/02/12 07:29:21;;;;;;;7.00;3.90;;;;;;;-4.10;100.00;96082.41;4951967;29;20102;-54
2022/02/12 07:31:46;;;;;;;8.63;4.38;;;;;;;-4.04;100.00;96084.41;4942436;29;20404;-58
2022/02/12 07:34:16;;;;;;;9.60;4.28;;;;;;;-3.97;100.00;96082.84;4962169;28;20031;-66
2022/02/12 07:36:42;;;;;;;8.15;4.35;;;;;;;-3.91;100.00;96086.63;4938074;29;20082;-61
2022/02/12 07:39:07;;;;;;;9.63;4.20;;;;;;;-3.82;100.00;96089.19;4952553;28;20028;-58
2022/02/12 07:41:35;;;;;;;7.65;4.60;;;;;;;-3.70;100.00;96089.75;4946449;29;20040;-65
2022/02/12 07:44:01;;;;;;;8.85;4.80;;;;;;;-3.48;100.00;96093.69;4934075;29;20023;-65
2022/02/12 07:46:27;;;;;;;10.52;4.90;;;;;;;-3.23;100.00;96078.97;4938056;29;20032;-64
2022/02/12 07:48:52;;;;;;;9.90;5.30;;;;;;;-2.99;100.00;96070.41;4934899;29;20022;-64
2022/02/12 07:51:18;;;;;;;9.82;5.57;;;;;;;-2.76;100.00;96075.91;4937415;29;20024;-64
2022/02/12 07:53:43;;;;;;;10.45;5.95;;;;;;;-2.58;100.00;96073.19;4948072;29;20027;-64
2022/02/12 07:56:09;;;;;;;16.23;6.80;;;;;;;-2.44;100.00;96070.75;4946329;28;20042;-64
2022/02/12 07:58:34;;;;;;;12.35;7.18;;;;;;;-2.23;100.00;96074.75;4937518;29;20042;-63
2022/02/12 08:00:59;;;;;;;9.45;5.60;;;;;;;-2.14;100.00;96085.09;4951675;28;20031;-63
2022/02/12 08:03:25;;;;;;;14.30;5.43;;;;;;;-2.05;100.00;96084.13;4935558;29;20111;-63
2022/02/12 08:05:50;;;;;;;11.75;4.93;;;;;;;-2.05;100.00;96081.50;4936008;29;20411;-63
2022/02/12 08:08:16;;;;;;;11.90;4.50;;;;;;;-2.01;100.00;96081.16;4952524;29;20606;-62
2022/02/12 08:13:27;;;;;;;17.58;4.70;;;;;;;-2.03;100.00;96091.03;4937934;29;20034;-63
2022/02/12 08:15:53;;;;;;;8.70;4.15;;;;;;;-2.02;100.00;96092.66;4949879;28;20513;-63
2022/02/12 08:18:18;;;;;;;7.45;3.60;;;;;;;-1.94;100.00;96092.69;4944148;29;20054;-65
2022/02/12 08:20:44;;;;;;;7.63;4.00;;;;;;;-1.78;100.00;96083.00;4938454;29;20016;-63
2022/02/12 08:23:10;;;;;;;6.63;4.07;;;;;;;-1.53;100.00;96075.09;4945889;28;20050;-65
2022/02/12 08:25:35;;;;;;;5.53;3.58;;;;;;;-1.29;100.00;96084.78;4952154;29;20475;-66
2022/02/12 08:28:01;;;;;;;4.88;2.95;;;;;;;-1.11;100.00;96081.94;4941291;28;20030;-67
2022/02/12 08:30:26;;;;;;;5.78;3.65;;;;;;;-0.82;100.00;96076.94;4950088;28;20510;-66
2022/02/12 08:32:52;;;;;;;5.70;3.08;;;;;;;-0.62;100.00;96072.09;4935910;29;20035;-67
2022/02/12 08:35:17;;;;;;;4.72;3.58;;;;;;;-0.39;100.00;96069.50;4942795;29;20206;-66
2022/02/12 08:37:44;;;;;;;5.47;3.33;;;;;;;-0.30;100.00;96068.47;4938448;28;20024;-64
2022/02/12 08:40:12;;;;;;;6.32;3.17;;;;;;;-0.08;100.00;96065.03;4953903;28;20019;-66
2022/02/12 08:42:39;;;;;;;5.90;3.22;;;;;;;-0.09;100.00;96067.84;4950113;28;20049;-66
2022/02/12 08:45:05;;;;;;;4.68;2.85;;;;;;;0.06;100.00;96068.72;4935106;29;20043;-66
2022/02/12 08:47:30;;;;;;;5.10;3.03;;;;;;;0.12;100.00;96069.84;4936061;29;20024;-65
2022/02/12 08:49:56;;;;;;;5.35;3.13;;;;;;;0.41;100.00;96062.03;4937114;29;20030;-65
2022/02/12 08:52:21;;;;;;;6.03;2.85;;;;;;;0.59;100.00;96059.09;4951692;28;20035;-65
2022/02/12 08:54:47;;;;;;;5.25;3.08;;;;;;;0.91;100.00;96047.41;4937071;29;20498;-65
2022/02/12 08:57:14;;;;;;;5.82;2.97;;;;;;;0.87;100.00;96035.59;4952011;28;20028;-65
2022/02/12 08:59:40;;;;;;;6.85;3.50;;;;;;;1.06;100.00;96036.84;4935941;29;20026;-64
2022/02/12 09:02:08;;;;;;;7.18;3.42;;;;;;;1.09;100.00;96026.75;4937046;29;20023;-65
2022/02/12 09:04:34;;;;;;;3.88;2.50;;;;;;;1.11;100.00;96016.84;4951834;28;20023;-65
2022/02/12 09:07:00;;;;;;;6.97;4.43;;;;;;;1.36;100.00;96001.50;4951901;28;20430;-65
2022/02/12 09:09:25;;;;;;;13.13;5.47;;;;;;;1.63;100.00;95997.38;4936809;29;20023;-65
2022/02/12 09:11:50;;;;;;;5.13;3.20;;;;;;;1.71;100.00;95986.66;4937259;29;20119;-65
2022/02/12 09:14:16;;;;;;;5.13;2.35;;;;;;;1.77;100.00;95976.38;4935749;29;20023;-65
2022/02/12 09:16:42;;;;;;;5.15;2.97;;;;;;;1.83;100.00;95957.09;4937193;29;20031;-64
2022/02/12 09:19:08;;;;;;;6.63;3.03;;;;;;;2.00;100.00;95942.66;4936768;29;20032;-65
2022/02/12 09:21:34;;;;;;;7.63;4.22;;;;;;;2.23;100.00;95929.22;4936967;29;20034;-65
2022/02/12 09:24:02;;;;;;;4.97;3.25;;;;;;;2.52;100.00;95899.09;4937339;29;20024;-64
2022/02/12 09:26:34;;;;;;;5.45;3.00;;;;;;;2.81;100.00;95885.63;4937933;29;20382;-65
2022/02/12 09:29:05;;;;;;;4.13;2.40;;;;;;;3.10;100.00;95863.34;4938021;29;20028;-65
2022/02/12 09:31:31;;;;;;;3.65;2.60;;;;;;;3.28;100.00;95844.25;4937167;29;20031;-65
2022/02/12 09:33:56;;;;;;;3.17;2.33;;;;;;;3.38;100.00;95823.50;4918870;29;20024;-65
2022/02/12 09:36:22;;;;;;;5.70;2.50;;;;;;;3.54;100.00;95800.28;4936583;29;20063;-65
2022/02/12 09:38:48;;;;;;;4.60;2.55;;;;;;;3.61;100.00;95774.63;4935738;29;20063;-65
2022/02/12 09:41:14;;;;;;;4.57;2.63;;;;;;;3.44;100.00;95764.41;4951213;29;20514;-65
2022/02/12 09:43:41;;;;;;;4.97;2.90;;;;;;;3.56;100.00;95750.56;4939656;29;20032;-65
2022/02/12 09:46:27;;;;;;;5.30;2.63;;;;;;;3.53;100.00;95743.84;4939725;29;20046;-65
2022/02/12 09:48:54;;;;;;;3.95;2.47;;;;;;;3.44;100.00;95755.66;4939843;29;20372;-66
2022/02/12 09:51:25;;;;;;;4.30;2.58;;;;;;;3.53;100.00;95769.50;4956293;29;20441;-66
2022/02/12 09:53:51;;;;;;;4.78;2.40;;;;;;;3.51;100.00;95774.22;4955976;28;20026;-66
2022/02/12 09:56:17;;;;;;;4.55;2.40;;;;;;;3.73;100.00;95794.16;4955292;28;20482;-64
2022/02/12 09:58:42;;;;;;;6.07;2.33;;;;;;;4.12;100.00;95808.38;4969970;28;20457;-64
2022/02/12 10:01:08;;;;;;;4.43;2.70;;;;;;;4.03;100.00;95824.53;4953976;28;20118;-64
2022/02/12 10:03:34;;;;;;;3.58;2.05;;;;;;;4.05;100.00;95859.59;4956178;28;20038;-66
2022/02/12 10:06:00;;;;;;;3.30;2.17;;;;;;;4.07;100.00;95889.34;4956807;28;20027;-66
2022/02/12 10:08:26;;;;;;;6.78;2.70;;;;;;;4.13;100.00;95919.56;4956716;29;20026;-65
2022/02/12 10:10:52;;;;;;;4.18;2.17;;;;;;;4.01;100.00;95937.88;4939475;28;20106;-65
2022/02/12 10:13:23;;;;;;;3.08;2.13;;;;;;;4.32;100.00;95955.03;4936965;29;20386;-65
2022/02/12 10:15:57;;;;;;;2.72;2.20;;;;;;;4.31;100.00;95983.38;4951849;28;20035;-64
2022/02/12 10:18:27;;;;;;;3.15;2.13;;;;;;;4.45;100.00;96017.88;4935840;29;20027;-65
2022/02/12 10:20:54;;;;;;;2.83;2.05;;;;;;;4.53;100.00;96026.44;4935511;29;20110;-65
2022/02/12 10:23:21;;;;;;;1.85;1.50;;;;;;;4.53;100.00;96054.81;4935520;29;20031;-65
2022/02/12 10:25:49;;;;;;;2.75;2.15;;;;;;;4.52;100.00;96080.53;4935419;29;20034;-65
2022/02/12 10:28:17;;;;;;;6.22;2.58;;;;;;;4.75;100.00;96080.13;4935384;29;20035;-65
2022/02/12 10:30:44;;;;;;;4.88;2.40;;;;;;;5.00;100.00;96092.81;4935158;29;20030;-65
2022/02/12 10:33:10;;;;;;;2.08;1.80;;;;;;;5.16;100.00;96101.16;4935404;29;20086;-65
2022/02/12 10:35:38;;;;;;;4.32;2.03;;;;;;;5.24;100.00;96116.91;4950274;28;20510;-65
2022/02/12 10:38:10;;;;;;;4.47;2.30;;;;;;;5.13;100.00;96140.59;4935378;29;20110;-64
2022/02/12 10:40:37;;;;;;;5.47;2.20;;;;;;;5.25;100.00;96160.22;4945207;29;20055;-64
2022/02/12 10:43:03;;;;;;;2.92;1.90;;;;;;;5.40;100.00;96165.28;4938846;28;20079;-65
2022/02/12 10:45:29;;;;;;;5.93;2.30;;;;;;;5.60;100.00;96183.88;4935686;29;20015;-65
2022/02/12 10:47:57;;;;;;;2.83;1.88;;;;;;;5.50;100.00;96208.22;4936370;29;20110;-65
2022/02/12 10:50:26;;;;;;;3.17;1.83;;;;;;;5.54;100.00;96222.75;4935561;29;20024;-65
2022/02/12 10:53:00;;;;;;;3.95;2.00;;;;;;;5.46;100.00;96254.81;4936944;29;20020;-65
2022/02/12 10:55:34;;;;;;;3.58;1.90;;;;;;;5.60;100.00;96264.44;4936925;29;20072;-64
2022/02/12 10:58:03;;;;;;;3.88;2.05;;;;;;;5.76;100.00;96276.50;4937207;29;20024;-64
2022/02/12 11:00:30;;;;;;;4.80;2.03;;;;;;;5.63;100.00;96287.94;4937450;29;20035;-64
2022/02/12 11:02:57;;;;;;;2.40;1.70;;;;;;;5.67;100.00;96286.53;4952144;28;20490;-65
2022/02/12 11:05:22;;;;;;;3.08;1.80;;;;;;;5.74;100.00;96297.94;4937471;29;20102;-65
2022/02/12 11:07:50;;;;;;;3.55;2.22;;;;;;;5.97;100.00;96305.56;4937000;29;20031;-64
2022/02/12 11:10:15;;;;;;;3.03;1.83;;;;;;;6.12;100.00;96297.34;4957395;28;20038;-65
2022/02/12 11:12:46;;;;;;;4.43;1.90;;;;;;;6.25;100.00;96302.66;4941519;29;20031;-67
2022/02/12 11:15:11;;;;;;;2.50;1.77;;;;;;;6.55;100.00;96303.00;4955547;28;20038;-64
2022/02/12 11:17:38;;;;;;;3.22;1.92;;;;;;;6.64;100.00;96300.91;4955101;28;20031;-64
2022/02/12 11:20:08;;;;;;;3.78;1.90;;;;;;;6.94;100.00;96298.53;4955133;28;20106;-64
2022/02/12 11:22:34;;;;;;;3.13;2.25;;;;;;;7.06;100.00;96320.00;4953643;29;20483;-64
2022/02/12 11:24:59;;;;;;;3.40;2.10;;;;;;;7.26;100.00;96329.50;4954715;28;20020;-64
2022/02/12 11:27:29;;;;;;;3.20;2.22;;;;;;;7.36;100.00;96344.22;4954827;28;20039;-64
2022/02/12 11:30:14;;;;;;;3.95;2.25;;;;;;;7.38;100.00;96359.00;4954866;28;20046;-64
2022/02/12 11:32:48;;;;;;;2.80;2.00;;;;;;;7.29;100.00;96354.13;4969812;28;20035;-67
2022/02/12 11:35:18;;;;;;;3.33;2.28;;;;;;;7.41;100.00;96342.56;4955427;28;20023;-64
2022/02/12 11:37:50;;;;;;;3.05;1.90;;;;;;;7.34;100.00;96339.13;4954557;28;20031;-64